sensor_id;sensor_type;location;lat;lon;timestamp;P1;P2;P0
84428;PMS7003;74637;52.170;21.034;2024-01-15T00:01:15;11.00;8.00;5.00
84428;PMS7003;74637;52.170;21.034;2024-01-15T00:03:57;11.50;6.00;5.00
84428;PMS7003;74637;52.170;21.034;2024-01-15T00:06:25;15.00;12.00;8.00
84428;PMS7003;74637;52.170;21.034;2024-01-15T00:08:53;13.00;11.00;7.00
84428;PMS7003;74637;52.170;21.034;2024-01-15T00:11:20;14.00;9.00;7.00
84428;PMS7003;74637;52.170;21.034;2024-01-15T00:13:46;12.00;8.00;5.00
84428;PMS7003;74637;52.170;21.034;2024-01-15T00:16:13;13.00;10.00;7.50
84428;PMS7003;74637;52.170;21.034;2024-01-15T00:18:40;21.00;9.00;7.00
84428;PMS7003;74637;52.170;21.034;2024-01-15T00:21:06;15.50;11.00;7.00
84428;PMS7003;74637;52.170;21.034;2024-01-15T00:23:33;13.00;8.00;5.00
84428;PMS7003;74637;52.170;21.034;2024-01-15T00:26:00;12.00;9.50;7.00
84428;PMS7003;74637;52.170;21.034;2024-01-15T00:28:27;18.50;7.50;5.00
84428;PMS7003;74637;52.170;21.034;2024-01-15T00:30:53;12.00;11.00;7.00
84428;PMS7003;74637;52.170;21.034;2024-01-15T00:33:20;15.50;11.50;7.50
84428;PMS7003;74637;52.170;21.034;2024-01-15T00:35:46;17.00;11.00;8.00
84428;PMS7003;74637;52.170;21.034;2024-01-15T00:38:16;14.00;10.00;7.00
84428;PMS7003;74637;52.170;21.034;2024-01-15T00:40:42;20.00;13.00;8.00
84428;PMS7003;74637;52.170;21.034;2024-01-15T00:43:09;16.00;10.50;6.00
84428;PMS7003;74637;52.170;21.034;2024-01-15T00:48:02;15.00;9.67;7.33
84428;PMS7003;74637;52.170;21.034;2024-01-15T00:50:29;18.00;11.00;7.00
84428;PMS7003;74637;52.170;21.034;2024-01-15T00:52:56;17.50;11.50;6.00
84428;PMS7003;74637;52.170;21.034;2024-01-15T00:55:23;13.50;11.00;8.00
84428;PMS7003;74637;52.170;21.034;2024-01-15T00:57:50;12.00;8.50;6.00
84428;PMS7003;74637;52.170;21.034;2024-01-15T01:00:16;10.00;7.00;4.00
84428;PMS7003;74637;52.170;21.034;2024-01-15T01:02:43;12.00;8.50;5.00
84428;PMS7003;74637;52.170;21.034;2024-01-15T01:05:10;19.50;12.00;7.00
84428;PMS7003;74637;52.170;21.034;2024-01-15T01:07:36;15.00;10.00;6.00
84428;PMS7003;74637;52.170;21.034;2024-01-15T01:10:03;15.00;9.50;7.00
84428;PMS7003;74637;52.170;21.034;2024-01-15T01:12:30;19.00;14.00;9.00
84428;PMS7003;74637;52.170;21.034;2024-01-15T01:14:57;11.50;11.00;6.00
84428;PMS7003;74637;52.170;21.034;2024-01-15T01:17:25;15.00;9.50;5.00
84428;PMS7003;74637;52.170;21.034;2024-01-15T01:19:52;19.00;13.50;7.50
84428;PMS7003;74637;52.170;21.034;2024-01-15T01:22:19;26.00;13.00;7.00
84428;PMS7003;74637;52.170;21.034;2024-01-15T01:24:45;16.00;14.00;5.00
84428;PMS7003;74637;52.170;21.034;2024-01-15T01:27:12;15.00;9.50;7.00
84428;PMS7003;74637;52.170;21.034;2024-01-15T01:29:38;15.00;10.00;6.50
84428;PMS7003;74637;52.170;21.034;2024-01-15T01:32:05;28.00;14.00;7.50
84428;PMS7003;74637;52.170;21.034;2024-01-15T01:34:32;25.00;18.50;11.00
84428;PMS7003;74637;52.170;21.034;2024-01-15T01:36:59;22.00;13.33;7.33
84428;PMS7003;74637;52.170;21.034;2024-01-15T01:39:26;24.00;18.67;9.00
84428;PMS7003;74637;52.170;21.034;2024-01-15T01:41:52;21.33;17.67;10.00
84428;PMS7003;74637;52.170;21.034;2024-01-15T01:44:19;27.00;20.00;11.00
84428;PMS7003;74637;52.170;21.034;2024-01-15T01:46:46;21.50;18.50;11.50
84428;PMS7003;74637;52.170;21.034;2024-01-15T01:49:16;23.00;17.50;11.00
84428;PMS7003;74637;52.170;21.034;2024-01-15T01:51:44;20.25;16.00;10.50
84428;PMS7003;74637;52.170;21.034;2024-01-15T01:54:13;23.00;20.00;12.00
84428;PMS7003;74637;52.170;21.034;2024-01-15T01:56:40;22.00;20.00;11.00
84428;PMS7003;74637;52.170;21.034;2024-01-15T01:59:08;24.50;16.00;9.00
84428;PMS7003;74637;52.170;21.034;2024-01-15T02:01:37;21.00;15.00;9.00
84428;PMS7003;74637;52.170;21.034;2024-01-15T02:04:04;16.67;12.33;7.00
84428;PMS7003;74637;52.170;21.034;2024-01-15T02:06:32;19.50;13.50;8.50
84428;PMS7003;74637;52.170;21.034;2024-01-15T02:08:59;27.00;18.00;11.00
84428;PMS7003;74637;52.170;21.034;2024-01-15T02:11:27;19.00;12.00;8.00
84428;PMS7003;74637;52.170;21.034;2024-01-15T02:13:54;19.67;14.33;9.00
84428;PMS7003;74637;52.170;21.034;2024-01-15T02:16:21;22.67;16.67;10.33
84428;PMS7003;74637;52.170;21.034;2024-01-15T02:18:50;26.75;19.25;12.00
84428;PMS7003;74637;52.170;21.034;2024-01-15T02:21:17;22.67;16.00;8.67
84428;PMS7003;74637;52.170;21.034;2024-01-15T02:23:46;21.00;17.00;10.00
84428;PMS7003;74637;52.170;21.034;2024-01-15T02:26:13;22.50;16.00;10.00
84428;PMS7003;74637;52.170;21.034;2024-01-15T02:28:40;16.50;12.00;8.00
84428;PMS7003;74637;52.170;21.034;2024-01-15T02:31:10;25.67;18.00;11.00
84428;PMS7003;74637;52.170;21.034;2024-01-15T02:33:37;21.00;17.00;11.00
84428;PMS7003;74637;52.170;21.034;2024-01-15T02:36:03;23.50;15.00;10.00
84428;PMS7003;74637;52.170;21.034;2024-01-15T02:38:30;21.00;17.00;11.00
84428;PMS7003;74637;52.170;21.034;2024-01-15T02:40:57;14.00;12.00;6.33
84428;PMS7003;74637;52.170;21.034;2024-01-15T02:43:25;21.50;12.00;8.00
84428;PMS7003;74637;52.170;21.034;2024-01-15T02:45:51;26.00;16.00;10.00
84428;PMS7003;74637;52.170;21.034;2024-01-15T02:48:18;21.33;15.33;10.00
84428;PMS7003;74637;52.170;21.034;2024-01-15T02:50:45;21.00;17.00;10.00
84428;PMS7003;74637;52.170;21.034;2024-01-15T02:53:11;27.00;16.00;11.00
84428;PMS7003;74637;52.170;21.034;2024-01-15T02:55:38;22.00;17.00;8.00
84428;PMS7003;74637;52.170;21.034;2024-01-15T02:58:04;20.50;16.00;10.00
84428;PMS7003;74637;52.170;21.034;2024-01-15T03:00:31;16.00;14.00;9.00
84428;PMS7003;74637;52.170;21.034;2024-01-15T03:02:58;17.00;14.00;8.00
84428;PMS7003;74637;52.170;21.034;2024-01-15T03:05:25;16.00;15.67;10.00
84428;PMS7003;74637;52.170;21.034;2024-01-15T03:07:51;16.00;12.00;9.00
84428;PMS7003;74637;52.170;21.034;2024-01-15T03:10:18;19.00;11.00;5.00
84428;PMS7003;74637;52.170;21.034;2024-01-15T03:12:44;15.00;11.00;7.00
84428;PMS7003;74637;52.170;21.034;2024-01-15T03:15:11;24.00;16.00;11.00
84428;PMS7003;74637;52.170;21.034;2024-01-15T03:17:39;18.67;14.00;9.33
84428;PMS7003;74637;52.170;21.034;2024-01-15T03:20:08;28.00;18.00;9.00
84428;PMS7003;74637;52.170;21.034;2024-01-15T03:22:35;20.00;14.00;8.00
84428;PMS7003;74637;52.170;21.034;2024-01-15T03:25:02;19.50;15.00;10.00
84428;PMS7003;74637;52.170;21.034;2024-01-15T03:27:30;30.50;20.00;9.00
84428;PMS7003;74637;52.170;21.034;2024-01-15T03:29:56;22.00;17.50;10.00
84428;PMS7003;74637;52.170;21.034;2024-01-15T03:32:23;25.00;15.25;7.00
84428;PMS7003;74637;52.170;21.034;2024-01-15T03:34:49;21.00;15.00;8.00
84428;PMS7003;74637;52.170;21.034;2024-01-15T03:37:18;21.50;15.00;10.00
84428;PMS7003;74637;52.170;21.034;2024-01-15T03:39:46;23.00;11.50;6.00
84428;PMS7003;74637;52.170;21.034;2024-01-15T03:42:12;21.00;15.00;11.00
84428;PMS7003;74637;52.170;21.034;2024-01-15T03:44:40;17.33;11.33;8.00
84428;PMS7003;74637;52.170;21.034;2024-01-15T03:47:07;21.00;17.00;9.00
84428;PMS7003;74637;52.170;21.034;2024-01-15T03:49:33;19.00;15.50;8.50
84428;PMS7003;74637;52.170;21.034;2024-01-15T03:52:00;21.00;15.00;8.00
84428;PMS7003;74637;52.170;21.034;2024-01-15T03:54:26;25.25;16.50;11.00
84428;PMS7003;74637;52.170;21.034;2024-01-15T03:56:53;14.50;14.50;9.00
84428;PMS7003;74637;52.170;21.034;2024-01-15T03:59:19;18.00;12.00;9.00
84428;PMS7003;74637;52.170;21.034;2024-01-15T04:01:49;18.50;14.00;9.50
84428;PMS7003;74637;52.170;21.034;2024-01-15T04:04:19;18.50;14.00;8.00
84428;PMS7003;74637;52.170;21.034;2024-01-15T04:06:45;17.00;13.50;7.50
84428;PMS7003;74637;52.170;21.034;2024-01-15T04:09:12;24.50;13.00;8.00
84428;PMS7003;74637;52.170;21.034;2024-01-15T04:11:40;17.00;14.00;8.00
84428;PMS7003;74637;52.170;21.034;2024-01-15T04:14:06;17.00;15.00;10.00
84428;PMS7003;74637;52.170;21.034;2024-01-15T04:16:33;22.67;15.67;9.33
84428;PMS7003;74637;52.170;21.034;2024-01-15T04:18:59;20.00;15.00;8.00
84428;PMS7003;74637;52.170;21.034;2024-01-15T04:21:26;19.00;17.00;11.00
84428;PMS7003;74637;52.170;21.034;2024-01-15T04:23:52;26.50;18.50;10.00
84428;PMS7003;74637;52.170;21.034;2024-01-15T04:26:19;25.00;15.00;8.00
84428;PMS7003;74637;52.170;21.034;2024-01-15T04:28:46;22.00;14.00;10.00
84428;PMS7003;74637;52.170;21.034;2024-01-15T04:31:22;18.50;13.00;7.50
84428;PMS7003;74637;52.170;21.034;2024-01-15T04:33:50;28.50;17.00;9.00
84428;PMS7003;74637;52.170;21.034;2024-01-15T04:36:17;24.67;12.00;8.00
84428;PMS7003;74637;52.170;21.034;2024-01-15T04:38:43;22.00;16.50;9.00
84428;PMS7003;74637;52.170;21.034;2024-01-15T04:41:11;24.50;14.50;8.00
84428;PMS7003;74637;52.170;21.034;2024-01-15T04:43:42;20.00;14.00;7.00
84428;PMS7003;74637;52.170;21.034;2024-01-15T04:46:08;17.50;13.50;7.50
84428;PMS7003;74637;52.170;21.034;2024-01-15T04:48:36;13.00;11.50;7.00
84428;PMS7003;74637;52.170;21.034;2024-01-15T04:51:05;15.00;11.00;7.00
84428;PMS7003;74637;52.170;21.034;2024-01-15T04:53:35;18.00;13.00;9.00
84428;PMS7003;74637;52.170;21.034;2024-01-15T04:56:02;22.50;15.50;9.00
84428;PMS7003;74637;52.170;21.034;2024-01-15T04:58:28;11.50;11.50;8.00
84428;PMS7003;74637;52.170;21.034;2024-01-15T05:00:55;19.00;11.00;7.00
84428;PMS7003;74637;52.170;21.034;2024-01-15T05:03:22;18.50;11.00;8.00
84428;PMS7003;74637;52.170;21.034;2024-01-15T05:05:48;24.00;18.50;11.00
84428;PMS7003;74637;52.170;21.034;2024-01-15T05:08:15;18.00;14.00;9.00
84428;PMS7003;74637;52.170;21.034;2024-01-15T05:10:41;24.00;16.67;10.33
84428;PMS7003;74637;52.170;21.034;2024-01-15T05:13:08;21.00;18.00;11.00
84428;PMS7003;74637;52.170;21.034;2024-01-15T05:15:34;15.00;12.00;7.00
84428;PMS7003;74637;52.170;21.034;2024-01-15T05:18:01;20.00;13.00;9.50
84428;PMS7003;74637;52.170;21.034;2024-01-15T05:20:29;17.00;15.00;10.00
84428;PMS7003;74637;52.170;21.034;2024-01-15T05:22:55;19.50;14.00;6.00
84428;PMS7003;74637;52.170;21.034;2024-01-15T05:25:22;16.50;12.50;7.50
84428;PMS7003;74637;52.170;21.034;2024-01-15T05:27:49;21.00;12.00;9.00
84428;PMS7003;74637;52.170;21.034;2024-01-15T05:30:15;15.00;12.00;8.00
84428;PMS7003;74637;52.170;21.034;2024-01-15T05:32:42;17.00;12.00;8.00
84428;PMS7003;74637;52.170;21.034;2024-01-15T05:35:09;19.50;15.00;10.00
84428;PMS7003;74637;52.170;21.034;2024-01-15T05:40:03;18.00;15.00;9.00
84428;PMS7003;74637;52.170;21.034;2024-01-15T05:42:30;12.00;9.50;5.00
84428;PMS7003;74637;52.170;21.034;2024-01-15T05:44:58;18.67;14.67;8.67
84428;PMS7003;74637;52.170;21.034;2024-01-15T05:47:25;24.50;13.50;7.50
84428;PMS7003;74637;52.170;21.034;2024-01-15T05:49:52;21.75;15.25;9.75
84428;PMS7003;74637;52.170;21.034;2024-01-15T05:52:19;19.00;12.00;9.00
84428;PMS7003;74637;52.170;21.034;2024-01-15T05:54:47;18.33;9.67;8.00
84428;PMS7003;74637;52.170;21.034;2024-01-15T05:57:14;16.50;8.00;7.00
84428;PMS7003;74637;52.170;21.034;2024-01-15T05:59:40;23.00;12.00;8.00
84428;PMS7003;74637;52.170;21.034;2024-01-15T06:02:07;19.00;15.50;8.50
84428;PMS7003;74637;52.170;21.034;2024-01-15T06:04:33;11.00;11.00;8.00
84428;PMS7003;74637;52.170;21.034;2024-01-15T06:07:00;23.33;18.00;10.00
84428;PMS7003;74637;52.170;21.034;2024-01-15T06:09:27;18.67;15.33;10.00
84428;PMS7003;74637;52.170;21.034;2024-01-15T06:11:54;19.50;12.00;9.00
84428;PMS7003;74637;52.170;21.034;2024-01-15T06:14:22;14.50;11.50;6.00
84428;PMS7003;74637;52.170;21.034;2024-01-15T06:16:49;18.00;15.00;9.67
84428;PMS7003;74637;52.170;21.034;2024-01-15T06:19:16;15.00;12.00;8.00
84428;PMS7003;74637;52.170;21.034;2024-01-15T06:21:42;14.50;7.00;4.00
84428;PMS7003;74637;52.170;21.034;2024-01-15T06:24:09;21.00;12.00;7.00
84428;PMS7003;74637;52.170;21.034;2024-01-15T06:26:36;17.00;15.00;9.25
84428;PMS7003;74637;52.170;21.034;2024-01-15T06:29:03;19.75;13.50;9.50
84428;PMS7003;74637;52.170;21.034;2024-01-15T06:31:29;22.00;15.00;10.00
84428;PMS7003;74637;52.170;21.034;2024-01-15T06:33:56;14.67;12.00;8.67
84428;PMS7003;74637;52.170;21.034;2024-01-15T06:36:22;19.00;14.00;8.00
84428;PMS7003;74637;52.170;21.034;2024-01-15T06:38:49;19.00;15.00;7.00
84428;PMS7003;74637;52.170;21.034;2024-01-15T06:41:15;14.00;11.00;8.00
84428;PMS7003;74637;52.170;21.034;2024-01-15T06:43:42;22.50;14.50;10.00
84428;PMS7003;74637;52.170;21.034;2024-01-15T06:46:09;20.50;16.50;8.00
84428;PMS7003;74637;52.170;21.034;2024-01-15T06:48:35;18.00;12.00;10.00
84428;PMS7003;74637;52.170;21.034;2024-01-15T06:51:02;15.00;12.00;8.00
84428;PMS7003;74637;52.170;21.034;2024-01-15T06:53:28;16.50;15.00;10.50
84428;PMS7003;74637;52.170;21.034;2024-01-15T06:55:55;20.00;11.00;7.00
84428;PMS7003;74637;52.170;21.034;2024-01-15T06:58:21;14.00;11.00;8.00
84428;PMS7003;74637;52.170;21.034;2024-01-15T07:00:48;19.50;12.00;8.00
84428;PMS7003;74637;52.170;21.034;2024-01-15T07:03:14;13.33;12.00;8.00
84428;PMS7003;74637;52.170;21.034;2024-01-15T07:05:41;11.00;10.00;7.00
84428;PMS7003;74637;52.170;21.034;2024-01-15T07:08:08;18.00;14.00;8.00
84428;PMS7003;74637;52.170;21.034;2024-01-15T07:10:34;17.25;11.25;8.00
84428;PMS7003;74637;52.170;21.034;2024-01-15T07:13:01;21.00;15.00;10.00
84428;PMS7003;74637;52.170;21.034;2024-01-15T07:15:27;22.00;11.00;8.00
84428;PMS7003;74637;52.170;21.034;2024-01-15T07:17:54;19.67;14.00;7.67
84428;PMS7003;74637;52.170;21.034;2024-01-15T07:20:20;16.00;14.00;9.50
84428;PMS7003;74637;52.170;21.034;2024-01-15T07:22:47;15.00;11.50;7.00
84428;PMS7003;74637;52.170;21.034;2024-01-15T07:25:13;12.00;12.00;10.00
84428;PMS7003;74637;52.170;21.034;2024-01-15T07:27:41;25.00;14.50;8.00
84428;PMS7003;74637;52.170;21.034;2024-01-15T07:30:11;15.50;11.50;7.50
84428;PMS7003;74637;52.170;21.034;2024-01-15T07:32:38;20.00;14.00;8.00
84428;PMS7003;74637;52.170;21.034;2024-01-15T07:35:05;22.00;14.00;7.00
84428;PMS7003;74637;52.170;21.034;2024-01-15T07:37:32;17.33;12.67;7.67
84428;PMS7003;74637;52.170;21.034;2024-01-15T07:39:59;15.33;11.00;7.00
84428;PMS7003;74637;52.170;21.034;2024-01-15T07:42:26;14.00;11.00;7.00
84428;PMS7003;74637;52.170;21.034;2024-01-15T07:44:53;19.25;15.75;8.00
84428;PMS7003;74637;52.170;21.034;2024-01-15T07:47:19;19.00;12.00;9.00
84428;PMS7003;74637;52.170;21.034;2024-01-15T07:49:46;19.00;10.50;7.00
84428;PMS7003;74637;52.170;21.034;2024-01-15T07:52:12;20.50;12.00;7.50
84428;PMS7003;74637;52.170;21.034;2024-01-15T07:54:40;16.50;16.50;8.50
84428;PMS7003;74637;52.170;21.034;2024-01-15T07:57:07;14.00;10.00;8.00
84428;PMS7003;74637;52.170;21.034;2024-01-15T07:59:34;14.00;14.00;7.00
84428;PMS7003;74637;52.170;21.034;2024-01-15T08:02:01;23.00;16.00;8.00
84428;PMS7003;74637;52.170;21.034;2024-01-15T08:04:28;17.00;12.00;8.00
84428;PMS7003;74637;52.170;21.034;2024-01-15T08:06:55;18.00;11.00;7.50
84428;PMS7003;74637;52.170;21.034;2024-01-15T08:09:23;15.50;11.00;7.50
84428;PMS7003;74637;52.170;21.034;2024-01-15T08:11:49;12.00;10.00;7.00
84428;PMS7003;74637;52.170;21.034;2024-01-15T08:14:17;16.50;11.00;7.00
84428;PMS7003;74637;52.170;21.034;2024-01-15T08:16:44;19.50;11.50;8.00
84428;PMS7003;74637;52.170;21.034;2024-01-15T08:19:11;20.00;13.00;5.00
84428;PMS7003;74637;52.170;21.034;2024-01-15T08:21:37;19.00;13.50;8.00
84428;PMS7003;74637;52.170;21.034;2024-01-15T08:24:04;17.00;11.00;7.00
84428;PMS7003;74637;52.170;21.034;2024-01-15T08:26:31;17.00;12.75;8.00
84428;PMS7003;74637;52.170;21.034;2024-01-15T08:28:58;18.00;11.00;7.00
84428;PMS7003;74637;52.170;21.034;2024-01-15T08:31:26;17.00;11.50;7.00
84428;PMS7003;74637;52.170;21.034;2024-01-15T08:33:53;16.00;11.00;8.00
84428;PMS7003;74637;52.170;21.034;2024-01-15T08:36:20;16.00;14.00;8.00
84428;PMS7003;74637;52.170;21.034;2024-01-15T08:38:48;17.50;14.00;8.00
84428;PMS7003;74637;52.170;21.034;2024-01-15T08:41:14;19.50;12.50;7.00
84428;PMS7003;74637;52.170;21.034;2024-01-15T08:43:41;18.00;12.00;8.00
84428;PMS7003;74637;52.170;21.034;2024-01-15T08:46:07;20.67;11.67;7.00
84428;PMS7003;74637;52.170;21.034;2024-01-15T08:48:34;17.00;10.00;8.00
84428;PMS7003;74637;52.170;21.034;2024-01-15T08:51:00;16.50;11.75;8.50
84428;PMS7003;74637;52.170;21.034;2024-01-15T08:53:27;23.50;14.50;8.50
84428;PMS7003;74637;52.170;21.034;2024-01-15T08:55:54;20.00;15.00;8.50
84428;PMS7003;74637;52.170;21.034;2024-01-15T08:58:20;19.00;14.75;10.00
84428;PMS7003;74637;52.170;21.034;2024-01-15T09:00:47;12.50;10.00;7.00
84428;PMS7003;74637;52.170;21.034;2024-01-15T09:03:13;19.00;12.50;8.00
84428;PMS7003;74637;52.170;21.034;2024-01-15T09:05:40;18.33;15.33;8.67
84428;PMS7003;74637;52.170;21.034;2024-01-15T09:08:07;19.00;11.00;7.00
84428;PMS7003;74637;52.170;21.034;2024-01-15T09:10:34;17.67;11.67;8.00
84428;PMS7003;74637;52.170;21.034;2024-01-15T09:13:01;14.50;13.50;10.00
84428;PMS7003;74637;52.170;21.034;2024-01-15T09:15:27;17.00;13.00;8.50
84428;PMS7003;74637;52.170;21.034;2024-01-15T09:17:54;19.00;13.50;7.50
84428;PMS7003;74637;52.170;21.034;2024-01-15T09:20:21;21.00;11.00;8.00
84428;PMS7003;74637;52.170;21.034;2024-01-15T09:22:47;19.75;14.50;7.75
84428;PMS7003;74637;52.170;21.034;2024-01-15T09:25:14;13.50;12.50;8.00
84428;PMS7003;74637;52.170;21.034;2024-01-15T09:27:40;23.00;14.00;9.00
84428;PMS7003;74637;52.170;21.034;2024-01-15T09:30:07;19.00;9.00;6.00
84428;PMS7003;74637;52.170;21.034;2024-01-15T09:32:34;13.00;11.50;7.00
84428;PMS7003;74637;52.170;21.034;2024-01-15T09:35:01;18.00;12.00;8.00
84428;PMS7003;74637;52.170;21.034;2024-01-15T09:37:27;18.00;12.00;8.00
84428;PMS7003;74637;52.170;21.034;2024-01-15T09:39:54;9.50;8.00;5.00
84428;PMS7003;74637;52.170;21.034;2024-01-15T09:42:23;12.00;8.00;4.50
84428;PMS7003;74637;52.170;21.034;2024-01-15T09:44:51;10.25;8.00;5.00
84428;PMS7003;74637;52.170;21.034;2024-01-15T09:47:19;11.00;9.00;6.00
84428;PMS7003;74637;52.170;21.034;2024-01-15T09:49:48;6.50;5.00;4.00
84428;PMS7003;74637;52.170;21.034;2024-01-15T09:52:14;15.00;7.00;5.00
84428;PMS7003;74637;52.170;21.034;2024-01-15T09:54:46;8.67;8.00;7.00
84428;PMS7003;74637;52.170;21.034;2024-01-15T09:57:13;8.00;6.50;5.00
84428;PMS7003;74637;52.170;21.034;2024-01-15T09:59:40;12.33;8.33;5.00
84428;PMS7003;74637;52.170;21.034;2024-01-15T10:02:10;9.00;6.00;3.00
84428;PMS7003;74637;52.170;21.034;2024-01-15T10:04:43;8.00;7.00;4.00
84428;PMS7003;74637;52.170;21.034;2024-01-15T10:07:12;9.50;7.00;5.00
84428;PMS7003;74637;52.170;21.034;2024-01-15T10:09:46;9.00;7.50;5.00
84428;PMS7003;74637;52.170;21.034;2024-01-15T10:12:12;12.00;8.00;5.00
84428;PMS7003;74637;52.170;21.034;2024-01-15T10:14:40;8.00;7.00;5.00
84428;PMS7003;74637;52.170;21.034;2024-01-15T10:17:11;8.00;5.00;4.00
84428;PMS7003;74637;52.170;21.034;2024-01-15T10:19:40;9.00;8.00;5.00
84428;PMS7003;74637;52.170;21.034;2024-01-15T10:22:08;13.50;7.00;4.00
84428;PMS7003;74637;52.170;21.034;2024-01-15T10:24:39;7.50;6.00;4.00
84428;PMS7003;74637;52.170;21.034;2024-01-15T10:27:07;9.50;5.00;3.00
84428;PMS7003;74637;52.170;21.034;2024-01-15T10:29:35;10.00;6.50;5.00
84428;PMS7003;74637;52.170;21.034;2024-01-15T10:32:08;6.00;4.75;4.00
84428;PMS7003;74637;52.170;21.034;2024-01-15T10:34:38;8.33;5.67;4.67
84428;PMS7003;74637;52.170;21.034;2024-01-15T10:37:09;9.00;6.50;5.00
84428;PMS7003;74637;52.170;21.034;2024-01-15T10:39:36;9.00;9.00;5.00
84428;PMS7003;74637;52.170;21.034;2024-01-15T10:42:03;6.00;6.00;5.00
84428;PMS7003;74637;52.170;21.034;2024-01-15T10:44:30;9.00;7.00;4.00
84428;PMS7003;74637;52.170;21.034;2024-01-15T10:46:57;11.00;6.00;5.00
84428;PMS7003;74637;52.170;21.034;2024-01-15T10:49:24;17.00;8.00;4.00
84428;PMS7003;74637;52.170;21.034;2024-01-15T10:51:55;9.00;8.00;5.00
84428;PMS7003;74637;52.170;21.034;2024-01-15T10:54:23;14.00;6.50;4.00
84428;PMS7003;74637;52.170;21.034;2024-01-15T10:56:50;9.00;8.00;5.00
84428;PMS7003;74637;52.170;21.034;2024-01-15T10:59:18;10.00;8.67;5.00
84428;PMS7003;74637;52.170;21.034;2024-01-15T11:01:47;12.00;7.33;5.33
84428;PMS7003;74637;52.170;21.034;2024-01-15T11:04:15;13.00;10.00;6.00
84428;PMS7003;74637;52.170;21.034;2024-01-15T11:06:43;10.00;8.50;5.50
84428;PMS7003;74637;52.170;21.034;2024-01-15T11:09:12;10.25;5.00;4.50
84428;PMS7003;74637;52.170;21.034;2024-01-15T11:11:42;18.00;8.00;6.00
84428;PMS7003;74637;52.170;21.034;2024-01-15T11:14:10;8.00;8.00;5.00
84428;PMS7003;74637;52.170;21.034;2024-01-15T11:16:53;9.00;7.50;4.50
84428;PMS7003;74637;52.170;21.034;2024-01-15T11:19:22;10.00;8.00;5.00
84428;PMS7003;74637;52.170;21.034;2024-01-15T11:21:49;9.00;8.00;7.00
84428;PMS7003;74637;52.170;21.034;2024-01-15T11:24:49;11.00;9.00;5.00
84428;PMS7003;74637;52.170;21.034;2024-01-15T11:27:08;15.00;11.00;5.00
84428;PMS7003;74637;52.170;21.034;2024-01-15T11:29:36;12.00;9.00;7.00
84428;PMS7003;74637;52.170;21.034;2024-01-15T11:32:04;9.33;7.67;5.00
84428;PMS7003;74637;52.170;21.034;2024-01-15T11:37:16;8.00;5.00;5.00
84428;PMS7003;74637;52.170;21.034;2024-01-15T11:39:43;9.00;9.00;6.00
84428;PMS7003;74637;52.170;21.034;2024-01-15T11:42:10;14.00;8.33;5.00
84428;PMS7003;74637;52.170;21.034;2024-01-15T11:44:38;8.50;7.00;4.00
84428;PMS7003;74637;52.170;21.034;2024-01-15T11:47:06;11.00;9.00;7.00
84428;PMS7003;74637;52.170;21.034;2024-01-15T11:52:32;6.33;6.33;4.67
84428;PMS7003;74637;52.170;21.034;2024-01-15T11:55:11;11.00;8.00;5.00
84428;PMS7003;74637;52.170;21.034;2024-01-15T12:00:10;14.00;11.00;5.00
84428;PMS7003;74637;52.170;21.034;2024-01-15T12:02:41;12.00;8.00;6.00
84428;PMS7003;74637;52.170;21.034;2024-01-15T12:05:10;13.75;8.25;5.00
84428;PMS7003;74637;52.170;21.034;2024-01-15T12:07:40;19.00;9.00;6.00
84428;PMS7003;74637;52.170;21.034;2024-01-15T12:10:14;11.33;9.00;7.00
84428;PMS7003;74637;52.170;21.034;2024-01-15T12:13:00;13.00;11.50;8.00
84428;PMS7003;74637;52.170;21.034;2024-01-15T12:15:31;18.00;9.00;5.50
84428;PMS7003;74637;52.170;21.034;2024-01-15T12:20:31;10.00;10.00;7.00
84428;PMS7003;74637;52.170;21.034;2024-01-15T12:22:59;12.50;9.00;5.50
84428;PMS7003;74637;52.170;21.034;2024-01-15T12:25:27;16.00;12.00;8.00
84428;PMS7003;74637;52.170;21.034;2024-01-15T12:27:55;11.00;8.00;5.00
84428;PMS7003;74637;52.170;21.034;2024-01-15T12:30:22;20.33;8.67;5.67
84428;PMS7003;74637;52.170;21.034;2024-01-15T12:32:49;14.50;11.50;7.00
84428;PMS7003;74637;52.170;21.034;2024-01-15T12:35:16;9.67;9.67;7.00
84428;PMS7003;74637;52.170;21.034;2024-01-15T12:37:43;15.50;10.50;6.50
84428;PMS7003;74637;52.170;21.034;2024-01-15T12:40:10;12.00;11.50;7.00
84428;PMS7003;74637;52.170;21.034;2024-01-15T12:42:37;20.00;14.67;8.00
84428;PMS7003;74637;52.170;21.034;2024-01-15T12:45:08;15.00;7.50;5.00
84428;PMS7003;74637;52.170;21.034;2024-01-15T12:47:36;14.00;11.00;8.00
84428;PMS7003;74637;52.170;21.034;2024-01-15T12:50:06;15.00;11.00;5.00
84428;PMS7003;74637;52.170;21.034;2024-01-15T12:52:34;16.00;13.50;8.00
84428;PMS7003;74637;52.170;21.034;2024-01-15T12:55:07;10.00;8.00;5.00
84428;PMS7003;74637;52.170;21.034;2024-01-15T12:57:35;14.00;10.00;7.00
84428;PMS7003;74637;52.170;21.034;2024-01-15T13:00:05;12.50;10.00;7.00
84428;PMS7003;74637;52.170;21.034;2024-01-15T13:02:39;11.00;7.00;5.00
84428;PMS7003;74637;52.170;21.034;2024-01-15T13:05:08;14.33;11.33;7.33
84428;PMS7003;74637;52.170;21.034;2024-01-15T13:07:37;13.00;11.00;7.00
84428;PMS7003;74637;52.170;21.034;2024-01-15T13:10:04;13.00;10.50;6.00
84428;PMS7003;74637;52.170;21.034;2024-01-15T13:12:33;11.00;8.00;5.00
84428;PMS7003;74637;52.170;21.034;2024-01-15T13:15:00;12.00;10.00;7.00
84428;PMS7003;74637;52.170;21.034;2024-01-15T13:17:29;17.50;8.50;7.00
84428;PMS7003;74637;52.170;21.034;2024-01-15T13:19:56;8.00;7.00;5.00
84428;PMS7003;74637;52.170;21.034;2024-01-15T13:22:22;15.00;7.00;5.00
84428;PMS7003;74637;52.170;21.034;2024-01-15T13:24:50;16.00;10.50;7.00
84428;PMS7003;74637;52.170;21.034;2024-01-15T13:27:16;14.00;10.00;7.00
84428;PMS7003;74637;52.170;21.034;2024-01-15T13:29:43;23.00;14.00;8.00
84428;PMS7003;74637;52.170;21.034;2024-01-15T13:32:11;14.50;11.00;7.50
84428;PMS7003;74637;52.170;21.034;2024-01-15T13:34:43;14.00;11.00;7.00
84428;PMS7003;74637;52.170;21.034;2024-01-15T13:37:10;16.00;11.33;7.67
84428;PMS7003;74637;52.170;21.034;2024-01-15T13:39:38;16.50;10.00;7.00
84428;PMS7003;74637;52.170;21.034;2024-01-15T13:42:04;16.00;12.00;8.00
84428;PMS7003;74637;52.170;21.034;2024-01-15T13:44:31;14.00;11.00;7.00
84428;PMS7003;74637;52.170;21.034;2024-01-15T13:46:57;16.00;11.00;8.00
84428;PMS7003;74637;52.170;21.034;2024-01-15T13:49:24;23.50;11.50;7.00
84428;PMS7003;74637;52.170;21.034;2024-01-15T13:51:51;20.00;12.50;7.50
84428;PMS7003;74637;52.170;21.034;2024-01-15T13:54:18;11.00;10.00;5.00
84428;PMS7003;74637;52.170;21.034;2024-01-15T13:56:47;16.00;11.00;5.00
84428;PMS7003;74637;52.170;21.034;2024-01-15T13:59:13;14.50;10.50;7.00
84428;PMS7003;74637;52.170;21.034;2024-01-15T14:01:40;8.00;7.00;5.00
84428;PMS7003;74637;52.170;21.034;2024-01-15T14:04:08;11.00;8.00;4.67
84428;PMS7003;74637;52.170;21.034;2024-01-15T14:06:35;11.25;7.75;6.00